sensor_id;sensor_type;location;lat;lon;timestamp;P1;durP1;ratioP1;P2;durP2;ratioP2
19675;SDS011;39539;52.202;9.876;2023-03-14T00:02:18;2.28;;;1.50;;
19675;SDS011;39539;52.202;9.876;2023-03-14T00:04:43;1.40;;;1.30;;
19675;SDS011;39539;52.202;9.876;2023-03-14T00:07:10;1.48;;;1.30;;
19675;SDS011;39539;52.202;9.876;2023-03-14T00:09:37;3.10;;;1.50;;
19675;SDS011;39539;52.202;9.876;2023-03-14T00:12:02;1.58;;;1.45;;
19675;SDS011;39539;52.202;9.876;2023-03-14T00:14:29;2.00;;;1.42;;
19675;SDS011;39539;52.202;9.876;2023-03-14T00:16:55;1.70;;;1.50;;
19675;SDS011;39539;52.202;9.876;2023-03-14T00:19:21;2.50;;;1.80;;
19675;SDS011;39539;52.202;9.876;2023-03-14T00:21:46;2.42;;;1.65;;
19675;SDS011;39539;52.202;9.876;2023-03-14T00:24:12;1.60;;;1.50;;
19675;SDS011;39539;52.202;9.876;2023-03-14T00:26:38;2.40;;;1.63;;
19675;SDS011;39539;52.202;9.876;2023-03-14T00:29:04;1.70;;;1.30;;
19675;SDS011;39539;52.202;9.876;2023-03-14T00:31:29;1.50;;;1.40;;
19675;SDS011;39539;52.202;9.876;2023-03-14T00:33:55;2.17;;;1.50;;
19675;SDS011;39539;52.202;9.876;2023-03-14T00:36:22;1.50;;;1.30;;
19675;SDS011;39539;52.202;9.876;2023-03-14T00:38:49;2.08;;;1.40;;
19675;SDS011;39539;52.202;9.876;2023-03-14T00:41:16;2.08;;;1.50;;
19675;SDS011;39539;52.202;9.876;2023-03-14T00:43:44;2.63;;;1.63;;
19675;SDS011;39539;52.202;9.876;2023-03-14T00:46:11;1.65;;;1.35;;
19675;SDS011;39539;52.202;9.876;2023-03-14T00:48:37;3.25;;;1.40;;
19675;SDS011;39539;52.202;9.876;2023-03-14T00:51:06;2.20;;;1.58;;
19675;SDS011;39539;52.202;9.876;2023-03-14T00:53:37;2.28;;;1.50;;
19675;SDS011;39539;52.202;9.876;2023-03-14T00:56:04;1.90;;;1.10;;
19675;SDS011;39539;52.202;9.876;2023-03-14T00:58:31;2.20;;;1.33;;
19675;SDS011;39539;52.202;9.876;2023-03-14T01:00:57;2.60;;;1.40;;
19675;SDS011;39539;52.202;9.876;2023-03-14T01:03:23;2.22;;;1.70;;
19675;SDS011;39539;52.202;9.876;2023-03-14T01:05:49;2.85;;;1.67;;
19675;SDS011;39539;52.202;9.876;2023-03-14T01:08:14;1.63;;;1.40;;
19675;SDS011;39539;52.202;9.876;2023-03-14T01:10:41;1.85;;;1.58;;
19675;SDS011;39539;52.202;9.876;2023-03-14T01:13:07;2.75;;;1.48;;
19675;SDS011;39539;52.202;9.876;2023-03-14T01:15:35;1.50;;;1.40;;
19675;SDS011;39539;52.202;9.876;2023-03-14T01:18:02;1.88;;;1.38;;
19675;SDS011;39539;52.202;9.876;2023-03-14T01:20:28;3.58;;;1.30;;
19675;SDS011;39539;52.202;9.876;2023-03-14T01:22:53;2.40;;;1.50;;
19675;SDS011;39539;52.202;9.876;2023-03-14T01:25:20;1.85;;;1.40;;
19675;SDS011;39539;52.202;9.876;2023-03-14T01:27:46;2.30;;;1.40;;
19675;SDS011;39539;52.202;9.876;2023-03-14T01:30:11;3.58;;;1.40;;
19675;SDS011;39539;52.202;9.876;2023-03-14T01:32:38;2.00;;;1.42;;
19675;SDS011;39539;52.202;9.876;2023-03-14T01:35:03;2.38;;;1.10;;
19675;SDS011;39539;52.202;9.876;2023-03-14T01:37:29;1.92;;;1.42;;
19675;SDS011;39539;52.202;9.876;2023-03-14T01:39:55;1.65;;;1.20;;
19675;SDS011;39539;52.202;9.876;2023-03-14T01:42:20;2.22;;;1.33;;
19675;SDS011;39539;52.202;9.876;2023-03-14T01:44:47;1.98;;;1.15;;
19675;SDS011;39539;52.202;9.876;2023-03-14T01:47:19;3.13;;;1.48;;
19675;SDS011;39539;52.202;9.876;2023-03-14T01:49:54;2.53;;;1.40;;
19675;SDS011;39539;52.202;9.876;2023-03-14T01:52:43;2.15;;;1.20;;
19675;SDS011;39539;52.202;9.876;2023-03-14T01:55:15;1.85;;;1.20;;
19675;SDS011;39539;52.202;9.876;2023-03-14T01:57:47;1.67;;;1.00;;
19675;SDS011;39539;52.202;9.876;2023-03-14T02:00:18;2.05;;;1.30;;
19675;SDS011;39539;52.202;9.876;2023-03-14T02:02:46;2.13;;;1.17;;
19675;SDS011;39539;52.202;9.876;2023-03-14T02:05:20;2.13;;;1.25;;
19675;SDS011;39539;52.202;9.876;2023-03-14T02:07:50;2.63;;;1.15;;
19675;SDS011;39539;52.202;9.876;2023-03-14T02:10:25;2.78;;;1.27;;
19675;SDS011;39539;52.202;9.876;2023-03-14T02:12:53;1.70;;;1.15;;
19675;SDS011;39539;52.202;9.876;2023-03-14T02:15:21;2.35;;;1.40;;
19675;SDS011;39539;52.202;9.876;2023-03-14T02:17:47;1.92;;;1.30;;
19675;SDS011;39539;52.202;9.876;2023-03-14T02:22:50;2.33;;;1.27;;
19675;SDS011;39539;52.202;9.876;2023-03-14T02:25:26;2.72;;;1.10;;
19675;SDS011;39539;52.202;9.876;2023-03-14T02:28:14;2.40;;;1.40;;
19675;SDS011;39539;52.202;9.876;2023-03-14T02:30:41;2.72;;;1.10;;
19675;SDS011;39539;52.202;9.876;2023-03-14T02:33:08;1.75;;;1.20;;
19675;SDS011;39539;52.202;9.876;2023-03-14T02:41:11;2.15;;;1.33;;
19675;SDS011;39539;52.202;9.876;2023-03-14T02:43:43;2.05;;;1.40;;
19675;SDS011;39539;52.202;9.876;2023-03-14T02:46:09;2.47;;;1.35;;
19675;SDS011;39539;52.202;9.876;2023-03-14T02:48:41;2.75;;;1.63;;
19675;SDS011;39539;52.202;9.876;2023-03-14T02:51:10;2.65;;;1.10;;
19675;SDS011;39539;52.202;9.876;2023-03-14T02:53:37;2.22;;;1.38;;
19675;SDS011;39539;52.202;9.876;2023-03-14T02:56:04;2.47;;;1.50;;
19675;SDS011;39539;52.202;9.876;2023-03-14T02:58:30;1.50;;;1.13;;
19675;SDS011;39539;52.202;9.876;2023-03-14T03:00:56;1.52;;;1.10;;
19675;SDS011;39539;52.202;9.876;2023-03-14T03:03:21;3.67;;;1.20;;
19675;SDS011;39539;52.202;9.876;2023-03-14T03:05:51;3.17;;;1.45;;
19675;SDS011;39539;52.202;9.876;2023-03-14T03:08:20;3.55;;;1.48;;
19675;SDS011;39539;52.202;9.876;2023-03-14T03:10:47;2.13;;;1.10;;
19675;SDS011;39539;52.202;9.876;2023-03-14T03:13:13;2.78;;;1.17;;
19675;SDS011;39539;52.202;9.876;2023-03-14T03:15:38;1.90;;;1.08;;
19675;SDS011;39539;52.202;9.876;2023-03-14T03:18:04;2.90;;;1.23;;
19675;SDS011;39539;52.202;9.876;2023-03-14T03:20:30;2.15;;;1.50;;
19675;SDS011;39539;52.202;9.876;2023-03-14T03:22:55;1.33;;;1.05;;
19675;SDS011;39539;52.202;9.876;2023-03-14T03:25:20;1.25;;;1.00;;
19675;SDS011;39539;52.202;9.876;2023-03-14T03:27:46;1.75;;;1.23;;
19675;SDS011;39539;52.202;9.876;2023-03-14T03:30:11;2.40;;;1.38;;
19675;SDS011;39539;52.202;9.876;2023-03-14T03:32:37;3.58;;;1.20;;
19675;SDS011;39539;52.202;9.876;2023-03-14T03:35:03;1.88;;;1.35;;
19675;SDS011;39539;52.202;9.876;2023-03-14T03:37:31;1.70;;;1.10;;
19675;SDS011;39539;52.202;9.876;2023-03-14T03:39:58;2.47;;;1.00;;
19675;SDS011;39539;52.202;9.876;2023-03-14T03:42:23;2.40;;;1.20;;
19675;SDS011;39539;52.202;9.876;2023-03-14T03:44:48;2.85;;;1.38;;
19675;SDS011;39539;52.202;9.876;2023-03-14T03:47:15;3.03;;;1.40;;
19675;SDS011;39539;52.202;9.876;2023-03-14T03:49:40;2.35;;;1.20;;
19675;SDS011;39539;52.202;9.876;2023-03-14T03:52:07;2.50;;;1.10;;
19675;SDS011;39539;52.202;9.876;2023-03-14T03:54:33;3.03;;;1.10;;
19675;SDS011;39539;52.202;9.876;2023-03-14T03:56:59;2.60;;;1.58;;
19675;SDS011;39539;52.202;9.876;2023-03-14T03:59:24;2.47;;;1.30;;
19675;SDS011;39539;52.202;9.876;2023-03-14T04:01:49;1.85;;;1.27;;
19675;SDS011;39539;52.202;9.876;2023-03-14T04:04:15;2.08;;;1.00;;
19675;SDS011;39539;52.202;9.876;2023-03-14T04:06:40;1.80;;;0.80;;
19675;SDS011;39539;52.202;9.876;2023-03-14T04:09:07;1.25;;;1.00;;
19675;SDS011;39539;52.202;9.876;2023-03-14T04:11:32;1.60;;;0.80;;
19675;SDS011;39539;52.202;9.876;2023-03-14T04:13:58;2.83;;;0.70;;
19675;SDS011;39539;52.202;9.876;2023-03-14T04:16:24;1.45;;;0.50;;
19675;SDS011;39539;52.202;9.876;2023-03-14T04:18:51;1.17;;;0.50;;
19675;SDS011;39539;52.202;9.876;2023-03-14T04:21:17;0.47;;;0.47;;
19675;SDS011;39539;52.202;9.876;2023-03-14T04:23:45;0.77;;;0.35;;
19675;SDS011;39539;52.202;9.876;2023-03-14T04:26:10;0.82;;;0.40;;
19675;SDS011;39539;52.202;9.876;2023-03-14T04:28:36;0.50;;;0.30;;
19675;SDS011;39539;52.202;9.876;2023-03-14T04:31:12;0.43;;;0.32;;
19675;SDS011;39539;52.202;9.876;2023-03-14T04:33:42;0.98;;;0.40;;
19675;SDS011;39539;52.202;9.876;2023-03-14T04:36:08;0.20;;;0.20;;
19675;SDS011;39539;52.202;9.876;2023-03-14T04:38:34;0.20;;;0.20;;
19675;SDS011;39539;52.202;9.876;2023-03-14T04:40:59;0.50;;;0.30;;
19675;SDS011;39539;52.202;9.876;2023-03-14T04:43:25;0.38;;;0.32;;
19675;SDS011;39539;52.202;9.876;2023-03-14T04:45:53;0.40;;;0.38;;
19675;SDS011;39539;52.202;9.876;2023-03-14T04:48:20;0.28;;;0.28;;
19675;SDS011;39539;52.202;9.876;2023-03-14T04:50:48;0.20;;;0.20;;
19675;SDS011;39539;52.202;9.876;2023-03-14T04:53:14;0.88;;;0.50;;
19675;SDS011;39539;52.202;9.876;2023-03-14T04:55:39;0.65;;;0.40;;
19675;SDS011;39539;52.202;9.876;2023-03-14T04:58:07;1.45;;;0.73;;
19675;SDS011;39539;52.202;9.876;2023-03-14T05:00:32;3.92;;;0.60;;
19675;SDS011;39539;52.202;9.876;2023-03-14T05:02:58;1.77;;;0.60;;
19675;SDS011;39539;52.202;9.876;2023-03-14T05:05:23;2.17;;;0.90;;
19675;SDS011;39539;52.202;9.876;2023-03-14T05:07:49;1.65;;;0.70;;
19675;SDS011;39539;52.202;9.876;2023-03-14T05:10:14;1.20;;;0.75;;
19675;SDS011;39539;52.202;9.876;2023-03-14T05:12:40;0.68;;;0.60;;
19675;SDS011;39539;52.202;9.876;2023-03-14T05:15:05;1.40;;;0.50;;
19675;SDS011;39539;52.202;9.876;2023-03-14T05:17:34;3.13;;;0.80;;
19675;SDS011;39539;52.202;9.876;2023-03-14T05:20:00;3.10;;;1.27;;
19675;SDS011;39539;52.202;9.876;2023-03-14T05:22:26;1.90;;;0.90;;
19675;SDS011;39539;52.202;9.876;2023-03-14T05:24:51;4.85;;;1.23;;
19675;SDS011;39539;52.202;9.876;2023-03-14T05:27:18;3.67;;;0.90;;
19675;SDS011;39539;52.202;9.876;2023-03-14T05:29:43;4.43;;;0.98;;
19675;SDS011;39539;52.202;9.876;2023-03-14T05:32:12;3.03;;;0.80;;
19675;SDS011;39539;52.202;9.876;2023-03-14T05:34:37;2.47;;;0.60;;
19675;SDS011;39539;52.202;9.876;2023-03-14T05:37:02;1.85;;;0.70;;
19675;SDS011;39539;52.202;9.876;2023-03-14T05:39:28;2.72;;;0.60;;
19675;SDS011;39539;52.202;9.876;2023-03-14T05:41:53;2.50;;;0.65;;
19675;SDS011;39539;52.202;9.876;2023-03-14T05:44:26;1.63;;;0.55;;
19675;SDS011;39539;52.202;9.876;2023-03-14T05:46:52;1.00;;;0.60;;
19675;SDS011;39539;52.202;9.876;2023-03-14T05:49:17;1.23;;;0.68;;
19675;SDS011;39539;52.202;9.876;2023-03-14T05:51:42;2.13;;;1.67;;
19675;SDS011;39539;52.202;9.876;2023-03-14T05:54:08;2.03;;;0.57;;
19675;SDS011;39539;52.202;9.876;2023-03-14T05:56:34;2.10;;;0.85;;
19675;SDS011;39539;52.202;9.876;2023-03-14T05:58:59;1.63;;;0.70;;
19675;SDS011;39539;52.202;9.876;2023-03-14T06:01:27;2.03;;;0.80;;
19675;SDS011;39539;52.202;9.876;2023-03-14T06:03:54;2.65;;;0.93;;
19675;SDS011;39539;52.202;9.876;2023-03-14T06:06:19;3.35;;;0.82;;
19675;SDS011;39539;52.202;9.876;2023-03-14T06:08:44;1.52;;;0.90;;
19675;SDS011;39539;52.202;9.876;2023-03-14T06:11:10;2.00;;;0.80;;
19675;SDS011;39539;52.202;9.876;2023-03-14T06:13:35;1.02;;;0.73;;
19675;SDS011;39539;52.202;9.876;2023-03-14T06:16:00;2.30;;;0.73;;
19675;SDS011;39539;52.202;9.876;2023-03-14T06:18:26;3.65;;;0.80;;
19675;SDS011;39539;52.202;9.876;2023-03-14T06:20:54;4.55;;;1.13;;
19675;SDS011;39539;52.202;9.876;2023-03-14T06:23:20;1.25;;;0.60;;
19675;SDS011;39539;52.202;9.876;2023-03-14T06:25:46;2.00;;;0.65;;
19675;SDS011;39539;52.202;9.876;2023-03-14T06:28:11;1.67;;;0.70;;
19675;SDS011;39539;52.202;9.876;2023-03-14T06:30:37;1.30;;;0.70;;
19675;SDS011;39539;52.202;9.876;2023-03-14T06:33:04;2.28;;;0.93;;
19675;SDS011;39539;52.202;9.876;2023-03-14T06:35:29;2.95;;;1.02;;
19675;SDS011;39539;52.202;9.876;2023-03-14T06:37:56;1.88;;;0.70;;
19675;SDS011;39539;52.202;9.876;2023-03-14T06:40:23;2.78;;;1.15;;
19675;SDS011;39539;52.202;9.876;2023-03-14T06:42:49;1.92;;;0.90;;
19675;SDS011;39539;52.202;9.876;2023-03-14T06:45:16;2.03;;;0.90;;
19675;SDS011;39539;52.202;9.876;2023-03-14T06:47:42;1.98;;;0.73;;
19675;SDS011;39539;52.202;9.876;2023-03-14T06:50:08;1.35;;;0.68;;
19675;SDS011;39539;52.202;9.876;2023-03-14T06:52:34;3.17;;;0.70;;
19675;SDS011;39539;52.202;9.876;2023-03-14T06:55:15;2.40;;;1.00;;
19675;SDS011;39539;52.202;9.876;2023-03-14T06:57:41;1.00;;;0.68;;
19675;SDS011;39539;52.202;9.876;2023-03-14T07:00:09;2.30;;;0.80;;
19675;SDS011;39539;52.202;9.876;2023-03-14T07:02:36;1.00;;;0.60;;
19675;SDS011;39539;52.202;9.876;2023-03-14T07:05:02;1.42;;;0.50;;
19675;SDS011;39539;52.202;9.876;2023-03-14T07:07:28;1.05;;;0.70;;
19675;SDS011;39539;52.202;9.876;2023-03-14T07:09:54;2.40;;;0.68;;
19675;SDS011;39539;52.202;9.876;2023-03-14T07:12:19;1.40;;;0.60;;
19675;SDS011;39539;52.202;9.876;2023-03-14T07:14:45;1.08;;;0.70;;
19675;SDS011;39539;52.202;9.876;2023-03-14T07:17:10;1.30;;;0.70;;
19675;SDS011;39539;52.202;9.876;2023-03-14T07:19:37;3.45;;;1.20;;
19675;SDS011;39539;52.202;9.876;2023-03-14T07:22:03;1.75;;;0.85;;
19675;SDS011;39539;52.202;9.876;2023-03-14T07:24:29;2.13;;;0.90;;
19675;SDS011;39539;52.202;9.876;2023-03-14T07:26:55;2.53;;;0.85;;
19675;SDS011;39539;52.202;9.876;2023-03-14T07:32:36;2.20;;;0.85;;
19675;SDS011;39539;52.202;9.876;2023-03-14T07:35:01;1.52;;;0.90;;
19675;SDS011;39539;52.202;9.876;2023-03-14T07:37:27;1.75;;;1.02;;
19675;SDS011;39539;52.202;9.876;2023-03-14T07:39:52;1.27;;;0.73;;
19675;SDS011;39539;52.202;9.876;2023-03-14T07:42:18;1.80;;;0.95;;
19675;SDS011;39539;52.202;9.876;2023-03-14T07:44:43;2.22;;;0.85;;
19675;SDS011;39539;52.202;9.876;2023-03-14T07:47:09;1.77;;;0.90;;
19675;SDS011;39539;52.202;9.876;2023-03-14T07:49:34;1.52;;;0.90;;
19675;SDS011;39539;52.202;9.876;2023-03-14T07:52:01;2.58;;;1.17;;
19675;SDS011;39539;52.202;9.876;2023-03-14T07:54:26;1.55;;;0.90;;
19675;SDS011;39539;52.202;9.876;2023-03-14T07:56:52;2.05;;;1.20;;
19675;SDS011;39539;52.202;9.876;2023-03-14T07:59:18;3.55;;;1.13;;
19675;SDS011;39539;52.202;9.876;2023-03-14T08:01:44;2.92;;;1.25;;
19675;SDS011;39539;52.202;9.876;2023-03-14T08:04:09;3.28;;;1.17;;
19675;SDS011;39539;52.202;9.876;2023-03-14T08:06:35;2.90;;;1.23;;
19675;SDS011;39539;52.202;9.876;2023-03-14T08:09:02;3.33;;;1.20;;
19675;SDS011;39539;52.202;9.876;2023-03-14T08:11:28;1.92;;;1.00;;
19675;SDS011;39539;52.202;9.876;2023-03-14T08:13:53;1.65;;;1.00;;
19675;SDS011;39539;52.202;9.876;2023-03-14T08:16:19;1.65;;;0.80;;
19675;SDS011;39539;52.202;9.876;2023-03-14T08:18:44;3.65;;;1.33;;
19675;SDS011;39539;52.202;9.876;2023-03-14T08:21:10;1.00;;;0.75;;
19675;SDS011;39539;52.202;9.876;2023-03-14T08:23:36;2.63;;;1.00;;
19675;SDS011;39539;52.202;9.876;2023-03-14T08:26:02;2.13;;;0.98;;
19675;SDS011;39539;52.202;9.876;2023-03-14T08:28:27;1.83;;;0.85;;
19675;SDS011;39539;52.202;9.876;2023-03-14T08:30:58;2.63;;;1.00;;
19675;SDS011;39539;52.202;9.876;2023-03-14T08:33:24;2.30;;;1.10;;
19675;SDS011;39539;52.202;9.876;2023-03-14T08:35:54;1.63;;;0.90;;
19675;SDS011;39539;52.202;9.876;2023-03-14T08:38:20;2.63;;;1.23;;
19675;SDS011;39539;52.202;9.876;2023-03-14T08:40:46;3.40;;;1.10;;
19675;SDS011;39539;52.202;9.876;2023-03-14T08:43:11;2.58;;;0.90;;
19675;SDS011;39539;52.202;9.876;2023-03-14T08:45:37;2.40;;;1.10;;
19675;SDS011;39539;52.202;9.876;2023-03-14T08:48:02;2.38;;;1.10;;
19675;SDS011;39539;52.202;9.876;2023-03-14T08:50:28;2.85;;;1.48;;
19675;SDS011;39539;52.202;9.876;2023-03-14T08:52:53;3.63;;;1.02;;
19675;SDS011;39539;52.202;9.876;2023-03-14T08:55:19;3.50;;;1.30;;
19675;SDS011;39539;52.202;9.876;2023-03-14T08:57:45;1.10;;;0.80;;
19675;SDS011;39539;52.202;9.876;2023-03-14T09:00:11;2.25;;;0.77;;
19675;SDS011;39539;52.202;9.876;2023-03-14T09:02:40;2.03;;;0.80;;
19675;SDS011;39539;52.202;9.876;2023-03-14T09:05:08;1.98;;;0.90;;
19675;SDS011;39539;52.202;9.876;2023-03-14T09:07:33;2.47;;;0.90;;
19675;SDS011;39539;52.202;9.876;2023-03-14T09:09:59;3.38;;;0.80;;
19675;SDS011;39539;52.202;9.876;2023-03-14T09:12:24;1.23;;;0.70;;
19675;SDS011;39539;52.202;9.876;2023-03-14T09:14:49;1.98;;;0.82;;
19675;SDS011;39539;52.202;9.876;2023-03-14T09:17:15;1.30;;;0.73;;
19675;SDS011;39539;52.202;9.876;2023-03-14T09:19:40;2.45;;;0.75;;
19675;SDS011;39539;52.202;9.876;2023-03-14T09:22:06;1.40;;;0.80;;
19675;SDS011;39539;52.202;9.876;2023-03-14T09:24:31;1.02;;;0.60;;
19675;SDS011;39539;52.202;9.876;2023-03-14T09:27:01;0.65;;;0.57;;
19675;SDS011;39539;52.202;9.876;2023-03-14T09:29:27;1.45;;;0.50;;
19675;SDS011;39539;52.202;9.876;2023-03-14T09:31:52;1.42;;;0.55;;
19675;SDS011;39539;52.202;9.876;2023-03-14T09:34:18;2.15;;;0.80;;
19675;SDS011;39539;52.202;9.876;2023-03-14T09:36:44;1.30;;;0.68;;
19675;SDS011;39539;52.202;9.876;2023-03-14T09:39:10;1.20;;;0.40;;
19675;SDS011;39539;52.202;9.876;2023-03-14T09:41:39;1.70;;;0.50;;
19675;SDS011;39539;52.202;9.876;2023-03-14T09:44:13;1.10;;;0.43;;
19675;SDS011;39539;52.202;9.876;2023-03-14T09:46:42;0.60;;;0.43;;
19675;SDS011;39539;52.202;9.876;2023-03-14T09:49:19;0.40;;;0.30;;
19675;SDS011;39539;52.202;9.876;2023-03-14T09:51:57;1.25;;;0.55;;
19675;SDS011;39539;52.202;9.876;2023-03-14T09:54:36;1.15;;;0.40;;
19675;SDS011;39539;52.202;9.876;2023-03-14T09:57:08;0.50;;;0.30;;
19675;SDS011;39539;52.202;9.876;2023-03-14T09:59:39;2.08;;;0.50;;
19675;SDS011;39539;52.202;9.876;2023-03-14T10:02:21;1.08;;;0.50;;
19675;SDS011;39539;52.202;9.876;2023-03-14T10:04:49;0.90;;;0.47;;
19675;SDS011;39539;52.202;9.876;2023-03-14T10:07:37;0.85;;;0.45;;
19675;SDS011;39539;52.202;9.876;2023-03-14T10:10:08;1.13;;;0.45;;
19675;SDS011;39539;52.202;9.876;2023-03-14T10:12:36;2.00;;;0.65;;
19675;SDS011;39539;52.202;9.876;2023-03-14T10:15:05;0.47;;;0.38;;
19675;SDS011;39539;52.202;9.876;2023-03-14T10:17:50;0.50;;;0.50;;
19675;SDS011;39539;52.202;9.876;2023-03-14T10:23:37;0.22;;;0.22;;
19675;SDS011;39539;52.202;9.876;2023-03-14T10:26:08;1.85;;;0.45;;
19675;SDS011;39539;52.202;9.876;2023-03-14T10:28:53;1.17;;;0.55;;
19675;SDS011;39539;52.202;9.876;2023-03-14T10:31:27;0.60;;;0.52;;
19675;SDS011;39539;52.202;9.876;2023-03-14T10:34:12;0.40;;;0.40;;
19675;SDS011;39539;52.202;9.876;2023-03-14T10:36:41;0.95;;;0.73;;
19675;SDS011;39539;52.202;9.876;2023-03-14T10:42:01;0.45;;;0.40;;
19675;SDS011;39539;52.202;9.876;2023-03-14T10:44:30;0.32;;;0.30;;
19675;SDS011;39539;52.202;9.876;2023-03-14T10:46:58;0.30;;;0.30;;
19675;SDS011;39539;52.202;9.876;2023-03-14T10:49:34;1.33;;;0.47;;
19675;SDS011;39539;52.202;9.876;2023-03-14T10:52:12;0.52;;;0.45;;
19675;SDS011;39539;52.202;9.876;2023-03-14T10:54:38;0.85;;;0.50;;
19675;SDS011;39539;52.202;9.876;2023-03-14T10:57:05;0.55;;;0.40;;
19675;SDS011;39539;52.202;9.876;2023-03-14T10:59:35;0.25;;;0.25;;
19675;SDS011;39539;52.202;9.876;2023-03-14T11:07:41;0.57;;;0.40;;
19675;SDS011;39539;52.202;9.876;2023-03-14T11:10:11;0.30;;;0.30;;
19675;SDS011;39539;52.202;9.876;2023-03-14T11:12:53;3.13;;;2.88;;
19675;SDS011;39539;52.202;9.876;2023-03-14T11:15:50;0.82;;;0.32;;
19675;SDS011;39539;52.202;9.876;2023-03-14T11:22:01;0.40;;;0.40;;
19675;SDS011;39539;52.202;9.876;2023-03-14T11:35:28;0.32;;;0.32;;
19675;SDS011;39539;52.202;9.876;2023-03-14T11:40:46;0.30;;;0.30;;
19675;SDS011;39539;52.202;9.876;2023-03-14T11:43:20;0.50;;;0.50;;
19675;SDS011;39539;52.202;9.876;2023-03-14T11:46:09;6.63;;;1.60;;
19675;SDS011;39539;52.202;9.876;2023-03-14T11:51:36;3.00;;;1.00;;
19675;SDS011;39539;52.202;9.876;2023-03-14T11:57:01;0.50;;;0.40;;
19675;SDS011;39539;52.202;9.876;2023-03-14T11:59:50;0.50;;;0.50;;
19675;SDS011;39539;52.202;9.876;2023-03-14T12:02:40;0.40;;;0.40;;
19675;SDS011;39539;52.202;9.876;2023-03-14T12:10:39;0.77;;;0.60;;
19675;SDS011;39539;52.202;9.876;2023-03-14T12:13:11;1.25;;;1.17;;
19675;SDS011;39539;52.202;9.876;2023-03-14T12:15:42;1.02;;;0.93;;
19675;SDS011;39539;52.202;9.876;2023-03-14T12:21:07;1.65;;;1.38;;
19675;SDS011;39539;52.202;9.876;2023-03-14T12:23:37;1.30;;;1.20;;
19675;SDS011;39539;52.202;9.876;2023-03-14T12:28:37;0.85;;;0.50;;
19675;SDS011;39539;52.202;9.876;2023-03-14T12:34:24;0.20;;;0.20;;
19675;SDS011;39539;52.202;9.876;2023-03-14T12:36:59;1.15;;;1.05;;
19675;SDS011;39539;52.202;9.876;2023-03-14T12:45:22;0.20;;;0.20;;
19675;SDS011;39539;52.202;9.876;2023-03-14T12:50:28;0.30;;;0.28;;
19675;SDS011;39539;52.202;9.876;2023-03-14T13:01:25;0.30;;;0.30;;
19675;SDS011;39539;52.202;9.876;2023-03-14T13:04:03;0.25;;;0.25;;
19675;SDS011;39539;52.202;9.876;2023-03-14T13:06:51;0.20;;;0.20;;
19675;SDS011;39539;52.202;9.876;2023-03-14T13:12:03;0.85;;;0.40;;
19675;SDS011;39539;52.202;9.876;2023-03-14T13:14:40;0.32;;;0.32;;
19675;SDS011;39539;52.202;9.876;2023-03-14T13:17:10;3.55;;;0.80;;
19675;SDS011;39539;52.202;9.876;2023-03-14T13:19:37;1.25;;;0.40;;
19675;SDS011;39539;52.202;9.876;2023-03-14T13:22:05;1.77;;;0.65;;
19675;SDS011;39539;52.202;9.876;2023-03-14T13:24:39;1.52;;;0.60;;
19675;SDS011;39539;52.202;9.876;2023-03-14T13:27:04;3.63;;;0.90;;
19675;SDS011;39539;52.202;9.876;2023-03-14T13:29:43;1.52;;;0.90;;
19675;SDS011;39539;52.202;9.876;2023-03-14T13:32:22;2.45;;;1.00;;
19675;SDS011;39539;52.202;9.876;2023-03-14T13:34:55;2.10;;;0.82;;
19675;SDS011;39539;52.202;9.876;2023-03-14T13:37:22;4.55;;;1.63;;
19675;SDS011;39539;52.202;9.876;2023-03-14T13:39:55;4.53;;;1.00;;
19675;SDS011;39539;52.202;9.876;2023-03-14T13:42:27;3.38;;;1.10;;
19675;SDS011;39539;52.202;9.876;2023-03-14T13:44:54;3.13;;;1.00;;
19675;SDS011;39539;52.202;9.876;2023-03-14T13:47:22;1.50;;;0.68;;
19675;SDS011;39539;52.202;9.876;2023-03-14T13:49:50;4.70;;;1.13;;
19675;SDS011;39539;52.202;9.876;2023-03-14T13:54:53;4.15;;;1.25;;
19675;SDS011;39539;52.202;9.876;2023-03-14T13:57:20;2.83;;;1.30;;
19675;SDS011;39539;52.202;9.876;2023-03-14T13:59:52;5.68;;;1.40;;
19675;SDS011;39539;52.202;9.876;2023-03-14T14:02:24;4.15;;;1.48;;
19675;SDS011;39539;52.202;9.876;2023-03-14T14:04:51;2.70;;;1.00;;
19675;SDS011;39539;52.202;9.876;2023-03-14T14:07:17;3.67;;;1.10;;
19675;SDS011;39539;52.202;9.876;2023-03-14T14:09:44;7.13;;;1.40;;
19675;SDS011;39539;52.202;9.876;2023-03-14T14:12:17;3.63;;;1.02;;
19675;SDS011;39539;52.202;9.876;2023-03-14T14:14:55;4.03;;;1.20;;
19675;SDS011;39539;52.202;9.876;2023-03-14T14:17:23;2.85;;;1.02;;
19675;SDS011;39539;52.202;9.876;2023-03-14T14:19:56;6.93;;;1.38;;
19675;SDS011;39539;52.202;9.876;2023-03-14T14:22:23;5.68;;;1.70;;
19675;SDS011;39539;52.202;9.876;2023-03-14T14:24:49;5.95;;;1.55;;
19675;SDS011;39539;52.202;9.876;2023-03-14T14:27:30;5.28;;;1.60;;
19675;SDS011;39539;52.202;9.876;2023-03-14T14:30:02;5.60;;;1.98;;
19675;SDS011;39539;52.202;9.876;2023-03-14T14:32:43;8.55;;;2.67;;
19675;SDS011;39539;52.202;9.876;2023-03-14T14:35:11;4.63;;;2.35;;
19675;SDS011;39539;52.202;9.876;2023-03-14T14:37:58;6.57;;;2.22;;
19675;SDS011;39539;52.202;9.876;2023-03-14T14:40:25;9.27;;;3.22;;
19675;SDS011;39539;52.202;9.876;2023-03-14T14:42:52;11.35;;;2.65;;
19675;SDS011;39539;52.202;9.876;2023-03-14T14:45:19;9.02;;;2.72;;
19675;SDS011;39539;52.202;9.876;2023-03-14T14:47:52;9.73;;;2.80;;
19675;SDS011;39539;52.202;9.876;2023-03-14T14:52:57;12.23;;;2.50;;
19675;SDS011;39539;52.202;9.876;2023-03-14T14:55:29;10.20;;;2.08;;
19675;SDS011;39539;52.202;9.876;2023-03-14T14:57:58;7.93;;;2.47;;
19675;SDS011;39539;52.202;9.876;2023-03-14T15:00:49;11.63;;;2.40;;
19675;SDS011;39539;52.202;9.876;2023-03-14T15:03:20;7.53;;;2.38;;
19675;SDS011;39539;52.202;9.876;2023-03-14T15:05:46;7.57;;;1.80;;
19675;SDS011;39539;52.202;9.876;2023-03-14T15:08:12;6.28;;;2.20;;
19675;SDS011;39539;52.202;9.876;2023-03-14T15:10:38;9.70;;;2.35;;
19675;SDS011;39539;52.202;9.876;2023-03-14T15:13:04;11.30;;;2.53;;
19675;SDS011;39539;52.202;9.876;2023-03-14T15:15:29;7.13;;;2.30;;
19675;SDS011;39539;52.202;9.876;2023-03-14T15:17:55;7.35;;;2.35;;
19675;SDS011;39539;52.202;9.876;2023-03-14T15:20:20;7.45;;;2.15;;
19675;SDS011;39539;52.202;9.876;2023-03-14T15:22:49;10.38;;;2.35;;
19675;SDS011;39539;52.202;9.876;2023-03-14T15:25:15;6.20;;;2.10;;
19675;SDS011;39539;52.202;9.876;2023-03-14T15:27:40;8.35;;;2.20;;
19675;SDS011;39539;52.202;9.876;2023-03-14T15:30:14;8.40;;;2.33;;
19675;SDS011;39539;52.202;9.876;2023-03-14T15:32:44;8.50;;;2.03;;
19675;SDS011;39539;52.202;9.876;2023-03-14T15:35:10;7.47;;;1.50;;
19675;SDS011;39539;52.202;9.876;2023-03-14T15:37:36;7.90;;;2.15;;
19675;SDS011;39539;52.202;9.876;2023-03-14T15:40:03;4.80;;;1.38;;
19675;SDS011;39539;52.202;9.876;2023-03-14T15:42:36;5.78;;;1.70;;
19675;SDS011;39539;52.202;9.876;2023-03-14T15:45:05;8.18;;;1.77;;
19675;SDS011;39539;52.202;9.876;2023-03-14T15:47:31;5.40;;;1.50;;
19675;SDS011;39539;52.202;9.876;2023-03-14T15:49:57;5.40;;;1.42;;
19675;SDS011;39539;52.202;9.876;2023-03-14T15:52:23;7.68;;;3.17;;
19675;SDS011;39539;52.202;9.876;2023-03-14T15:54:48;9.02;;;1.80;;
19675;SDS011;39539;52.202;9.876;2023-03-14T15:57:14;9.20;;;1.65;;
19675;SDS011;39539;52.202;9.876;2023-03-14T15:59:39;6.55;;;1.48;;
19675;SDS011;39539;52.202;9.876;2023-03-14T16:02:04;5.00;;;1.60;;
19675;SDS011;39539;52.202;9.876;2023-03-14T16:04:30;7.13;;;2.13;;
19675;SDS011;39539;52.202;9.876;2023-03-14T16:06:55;6.43;;;1.63;;
19675;SDS011;39539;52.202;9.876;2023-03-14T16:09:21;8.05;;;1.83;;
19675;SDS011;39539;52.202;9.876;2023-03-14T16:11:48;5.00;;;1.40;;
19675;SDS011;39539;52.202;9.876;2023-03-14T16:14:14;7.65;;;1.73;;
19675;SDS011;39539;52.202;9.876;2023-03-14T16:16:39;9.43;;;1.98;;
19675;SDS011;39539;52.202;9.876;2023-03-14T16:19:06;3.58;;;1.45;;
19675;SDS011;39539;52.202;9.876;2023-03-14T16:21:31;5.53;;;1.50;;